SWA9865 KPDX-KSAN
Flight info
| Callsign | SWA9865 |
|---|---|
| Flight time | N/A |
| Altitude | 39000 |
| Route | HRMNS6 HYJOE BORDY COLOM PASKE HUULK COMIX2 |
| Aircraft | B738/M-SDE2E3FGHIRWXY/LB1 |
Departure
| Time | 2026-05-05 03:36 |
|---|---|
| Airport | Portland International Airport (KPDX) |
Arrival
| Time | N/A |
|---|---|
| Airport | San Diego International Airport (KSAN) |
| Time | Latitude | Longitude | Altitude | Speed | Heading |
|---|---|---|---|---|---|
| 2026-05-05 03:11 | 45.58812 | -122.59587 | 35 ft | 0 kts | 38° |
| 2026-05-05 03:23 | 45.58799 | -122.59602 | 31 ft | 3 kts | 38° |
| 2026-05-05 03:24 | 45.58785 | -122.59618 | 35 ft | 3 kts | 38° |
| 2026-05-05 03:24 | 45.58769 | -122.59634 | 34 ft | 3 kts | 54° |
| 2026-05-05 03:24 | 45.58764 | -122.59651 | 33 ft | 0 kts | 115° |
| 2026-05-05 03:26 | 45.58764 | -122.59650 | 33 ft | 0 kts | 115° |
| 2026-05-05 03:26 | 45.58763 | -122.59649 | 33 ft | 0 kts | 114° |
| 2026-05-05 03:27 | 45.58753 | -122.59629 | 34 ft | 5 kts | 126° |
| 2026-05-05 03:27 | 45.58725 | -122.59576 | 34 ft | 9 kts | 126° |
| 2026-05-05 03:27 | 45.58689 | -122.59493 | 34 ft | 11 kts | 123° |
| 2026-05-05 03:27 | 45.58641 | -122.59397 | 33 ft | 14 kts | 128° |
| 2026-05-05 03:28 | 45.58596 | -122.59319 | 30 ft | 1 kts | 128° |
| 2026-05-05 03:28 | 45.58596 | -122.59318 | 30 ft | 0 kts | 128° |
| 2026-05-05 03:31 | 45.58595 | -122.59316 | 30 ft | 0 kts | 128° |
| 2026-05-05 03:31 | 45.58594 | -122.59315 | 30 ft | 1 kts | 128° |
| 2026-05-05 03:31 | 45.58581 | -122.59291 | 30 ft | 5 kts | 129° |
| 2026-05-05 03:31 | 45.58556 | -122.59247 | 30 ft | 6 kts | 129° |
| 2026-05-05 03:32 | 45.58528 | -122.59200 | 30 ft | 7 kts | 129° |
| 2026-05-05 03:32 | 45.58497 | -122.59144 | 30 ft | 8 kts | 129° |
| 2026-05-05 03:32 | 45.58457 | -122.59073 | 29 ft | 10 kts | 128° |
| 2026-05-05 03:32 | 45.58409 | -122.58985 | 30 ft | 12 kts | 123° |
| 2026-05-05 03:33 | 45.58370 | -122.58887 | 32 ft | 11 kts | 118° |
| 2026-05-05 03:33 | 45.58331 | -122.58788 | 32 ft | 12 kts | 120° |
| 2026-05-05 03:33 | 45.58287 | -122.58674 | 30 ft | 14 kts | 119° |
| 2026-05-05 03:33 | 45.58242 | -122.58559 | 31 ft | 13 kts | 118° |
| 2026-05-05 03:34 | 45.58198 | -122.58445 | 29 ft | 12 kts | 119° |
| 2026-05-05 03:34 | 45.58163 | -122.58377 | 29 ft | 5 kts | 141° |
| 2026-05-05 03:34 | 45.58162 | -122.58376 | 29 ft | 0 kts | 142° |
| 2026-05-05 03:34 | 45.58161 | -122.58374 | 29 ft | 2 kts | 144° |
| 2026-05-05 03:35 | 45.58093 | -122.58385 | 30 ft | 13 kts | 225° |
| 2026-05-05 03:35 | 45.58091 | -122.58498 | 31 ft | 9 kts | 294° |
| 2026-05-05 03:35 | 45.58155 | -122.58661 | 34 ft | 49 kts | 299° |
| 2026-05-05 03:35 | 45.58464 | -122.59451 | 32 ft | 129 kts | 299° |
| 2026-05-05 03:36 | 45.59009 | -122.60810 | 273 ft | 172 kts | 301° |
| 2026-05-05 03:36 | 45.59690 | -122.62328 | 956 ft | 194 kts | 301° |
| 2026-05-05 03:36 | 45.60445 | -122.64089 | 1332 ft | 228 kts | 301° |
| 2026-05-05 03:36 | 45.61342 | -122.66162 | 1648 ft | 261 kts | 302° |
| 2026-05-05 03:37 | 45.62272 | -122.68392 | 2529 ft | 259 kts | 298° |
| 2026-05-05 03:37 | 45.63161 | -122.70639 | 3358 ft | 259 kts | 298° |
| 2026-05-05 03:37 | 45.64052 | -122.72876 | 4268 ft | 259 kts | 300° |
| 2026-05-05 03:37 | 45.64945 | -122.75100 | 5092 ft | 261 kts | 301° |
| 2026-05-05 03:38 | 45.65859 | -122.77364 | 5907 ft | 263 kts | 302° |
| 2026-05-05 03:38 | 45.66756 | -122.79640 | 6749 ft | 264 kts | 297° |
| 2026-05-05 03:38 | 45.67112 | -122.82268 | 7343 ft | 279 kts | 269° |
| 2026-05-05 03:38 | 45.66706 | -122.85019 | 8045 ft | 286 kts | 255° |
| 2026-05-05 03:39 | 45.66103 | -122.87759 | 8767 ft | 290 kts | 253° |
| 2026-05-05 03:39 | 45.65119 | -122.90303 | 9435 ft | 299 kts | 226° |
| 2026-05-05 03:39 | 45.63413 | -122.91938 | 10122 ft | 302 kts | 199° |
| 2026-05-05 03:39 | 45.61336 | -122.92298 | 10752 ft | 304 kts | 171° |
| 2026-05-05 03:40 | 45.59263 | -122.91572 | 11413 ft | 307 kts | 162° |
| 2026-05-05 03:40 | 45.57207 | -122.90669 | 12031 ft | 312 kts | 161° |
| 2026-05-05 03:40 | 45.55114 | -122.89756 | 12675 ft | 316 kts | 161° |
| 2026-05-05 03:40 | 45.53089 | -122.88617 | 13303 ft | 319 kts | 149° |
| 2026-05-05 03:41 | 45.51164 | -122.87004 | 13957 ft | 321 kts | 146° |
| 2026-05-05 03:41 | 45.49254 | -122.85311 | 14547 ft | 325 kts | 146° |
| 2026-05-05 03:41 | 45.47341 | -122.83607 | 15140 ft | 328 kts | 146° |
| 2026-05-05 03:41 | 45.45365 | -122.81862 | 15759 ft | 331 kts | 146° |
| 2026-05-05 03:42 | 45.43413 | -122.80155 | 16361 ft | 335 kts | 146° |
| 2026-05-05 03:42 | 45.41411 | -122.78420 | 16959 ft | 339 kts | 146° |
| 2026-05-05 03:42 | 45.39385 | -122.76675 | 17550 ft | 342 kts | 146° |
| 2026-05-05 03:42 | 45.37297 | -122.74881 | 17756 ft | 359 kts | 146° |
| 2026-05-05 03:43 | 45.35101 | -122.72998 | 17899 ft | 377 kts | 146° |
| 2026-05-05 03:43 | 45.32795 | -122.71027 | 18034 ft | 394 kts | 146° |
| 2026-05-05 03:43 | 45.30422 | -122.69005 | 18255 ft | 406 kts | 146° |
| 2026-05-05 03:43 | 45.27976 | -122.66925 | 18675 ft | 411 kts | 147° |
| 2026-05-05 03:44 | 45.25521 | -122.64843 | 19204 ft | 412 kts | 146° |
| 2026-05-05 03:44 | 45.23046 | -122.62744 | 19737 ft | 414 kts | 146° |
| 2026-05-05 03:44 | 45.20592 | -122.60665 | 20228 ft | 417 kts | 146° |
| 2026-05-05 03:44 | 45.18080 | -122.58538 | 20710 ft | 420 kts | 146° |
| 2026-05-05 03:45 | 45.15558 | -122.56403 | 21187 ft | 423 kts | 146° |
| 2026-05-05 03:45 | 45.13021 | -122.54257 | 21656 ft | 426 kts | 146° |
| 2026-05-05 03:45 | 45.10468 | -122.52100 | 22145 ft | 428 kts | 146° |
| 2026-05-05 03:45 | 45.07886 | -122.49921 | 22557 ft | 432 kts | 146° |
| 2026-05-05 03:46 | 45.05329 | -122.47764 | 22997 ft | 435 kts | 146° |
| 2026-05-05 03:46 | 45.02713 | -122.45562 | 23457 ft | 438 kts | 146° |
| 2026-05-05 03:46 | 45.00090 | -122.43355 | 23829 ft | 440 kts | 145° |
| 2026-05-05 03:46 | 44.97438 | -122.41127 | 24202 ft | 443 kts | 145° |
| 2026-05-05 03:47 | 44.94761 | -122.38925 | 24518 ft | 448 kts | 149° |
| 2026-05-05 03:47 | 44.91857 | -122.37220 | 24934 ft | 453 kts | 157° |
| 2026-05-05 03:47 | 44.88880 | -122.35830 | 25308 ft | 456 kts | 159° |
| 2026-05-05 03:47 | 44.85842 | -122.34507 | 25668 ft | 459 kts | 159° |
| 2026-05-05 03:48 | 44.82776 | -122.33186 | 26002 ft | 461 kts | 159° |
| 2026-05-05 03:48 | 44.79701 | -122.31837 | 26382 ft | 462 kts | 159° |
| 2026-05-05 03:48 | 44.76639 | -122.30465 | 26920 ft | 458 kts | 158° |
| 2026-05-05 03:48 | 44.73619 | -122.29088 | 27452 ft | 456 kts | 158° |
| 2026-05-05 03:49 | 44.70607 | -122.27698 | 27933 ft | 455 kts | 158° |
| 2026-05-05 03:49 | 44.67628 | -122.26315 | 28403 ft | 454 kts | 157° |
| 2026-05-05 03:49 | 44.64620 | -122.24917 | 28817 ft | 454 kts | 157° |
| 2026-05-05 03:49 | 44.61622 | -122.23526 | 29294 ft | 452 kts | 157° |
| 2026-05-05 03:50 | 44.58636 | -122.22136 | 29789 ft | 450 kts | 156° |
| 2026-05-05 03:50 | 44.55649 | -122.20753 | 30165 ft | 451 kts | 157° |
| 2026-05-05 03:50 | 44.52667 | -122.19378 | 30470 ft | 451 kts | 156° |
| 2026-05-05 03:50 | 44.49708 | -122.18010 | 30799 ft | 451 kts | 156° |
| 2026-05-05 03:51 | 44.46724 | -122.16636 | 31188 ft | 449 kts | 156° |
| 2026-05-05 03:51 | 44.43750 | -122.15270 | 31557 ft | 448 kts | 156° |
| 2026-05-05 03:51 | 44.40786 | -122.13909 | 31891 ft | 448 kts | 156° |
| 2026-05-05 03:51 | 44.37825 | -122.12550 | 32208 ft | 447 kts | 156° |
| 2026-05-05 03:52 | 44.34908 | -122.11205 | 32524 ft | 447 kts | 156° |
| 2026-05-05 03:52 | 44.31953 | -122.09851 | 32847 ft | 447 kts | 156° |
| 2026-05-05 03:52 | 44.28995 | -122.08507 | 33175 ft | 446 kts | 155° |
| 2026-05-05 03:52 | 44.26049 | -122.07165 | 33528 ft | 444 kts | 155° |
| 2026-05-05 03:53 | 44.23116 | -122.05825 | 33899 ft | 443 kts | 155° |
| 2026-05-05 03:53 | 44.20188 | -122.04487 | 34122 ft | 443 kts | 155° |
| 2026-05-05 03:53 | 44.17254 | -122.03147 | 34311 ft | 444 kts | 155° |
| 2026-05-05 03:53 | 44.14307 | -122.01801 | 34444 ft | 447 kts | 155° |
| 2026-05-05 03:54 | 44.08366 | -121.99093 | 34573 ft | 455 kts | 155° |
| 2026-05-05 03:54 | 44.02272 | -121.96327 | 34667 ft | 466 kts | 155° |
| 2026-05-05 03:55 | 43.96036 | -121.93506 | 34749 ft | 475 kts | 155° |
| 2026-05-05 03:55 | 43.89726 | -121.90658 | 34942 ft | 481 kts | 155° |
| 2026-05-05 03:56 | 43.86543 | -121.89225 | 35148 ft | 481 kts | 155° |
| 2026-05-05 03:56 | 43.83312 | -121.87900 | 35379 ft | 483 kts | 159° |
| 2026-05-05 03:56 | 43.80054 | -121.86857 | 35590 ft | 485 kts | 162° |
| 2026-05-05 03:56 | 43.76743 | -121.85940 | 35782 ft | 486 kts | 163° |
| 2026-05-05 03:57 | 43.73410 | -121.85066 | 35965 ft | 487 kts | 163° |
| 2026-05-05 03:57 | 43.70064 | -121.84186 | 36167 ft | 486 kts | 162° |
| 2026-05-05 03:57 | 43.66782 | -121.83299 | 36352 ft | 486 kts | 162° |
| 2026-05-05 03:57 | 43.63467 | -121.82378 | 36518 ft | 486 kts | 162° |
| 2026-05-05 03:58 | 43.60150 | -121.81437 | 36693 ft | 485 kts | 161° |
| 2026-05-05 03:58 | 43.56840 | -121.80488 | 36961 ft | 482 kts | 161° |
| 2026-05-05 03:58 | 43.53554 | -121.79541 | 37186 ft | 482 kts | 161° |
| 2026-05-05 03:58 | 43.50274 | -121.78593 | 37313 ft | 483 kts | 161° |
| 2026-05-05 03:59 | 43.46978 | -121.77640 | 37440 ft | 483 kts | 161° |
| 2026-05-05 03:59 | 43.43725 | -121.76703 | 37617 ft | 483 kts | 161° |
| 2026-05-05 03:59 | 43.40429 | -121.75755 | 37796 ft | 482 kts | 161° |
| 2026-05-05 03:59 | 43.37145 | -121.74814 | 37971 ft | 482 kts | 161° |
| 2026-05-05 04:00 | 43.33863 | -121.73875 | 38163 ft | 481 kts | 161° |
| 2026-05-05 04:00 | 43.30578 | -121.72936 | 38311 ft | 481 kts | 161° |
| 2026-05-05 04:00 | 43.24047 | -121.71072 | 38557 ft | 480 kts | 161° |
| 2026-05-05 04:01 | 43.20778 | -121.70141 | 38658 ft | 480 kts | 161° |
| 2026-05-05 04:01 | 43.17529 | -121.69217 | 38751 ft | 481 kts | 161° |
| 2026-05-05 04:01 | 43.11006 | -121.67365 | 38868 ft | 477 kts | 161° |
| 2026-05-05 04:02 | 43.04487 | -121.65515 | 38879 ft | 479 kts | 161° |
| 2026-05-05 04:02 | 42.97957 | -121.63664 | 38892 ft | 481 kts | 161° |
| 2026-05-05 04:03 | 42.91393 | -121.61809 | 38880 ft | 484 kts | 161° |
| 2026-05-05 04:03 | 42.84767 | -121.59943 | 38867 ft | 486 kts | 161° |
| 2026-05-05 04:04 | 42.78133 | -121.58080 | 38881 ft | 485 kts | 161° |
| 2026-05-05 04:04 | 42.71597 | -121.56255 | 38843 ft | 476 kts | 160° |
| 2026-05-05 04:05 | 42.66221 | -121.54755 | 38846 ft | 470 kts | 160° |
| 2026-05-05 04:05 | 42.59821 | -121.52965 | 38874 ft | 467 kts | 160° |
| 2026-05-05 04:06 | 42.53466 | -121.51185 | 38857 ft | 471 kts | 160° |
| 2026-05-05 04:06 | 42.47017 | -121.49385 | 38853 ft | 474 kts | 160° |
| 2026-05-05 04:07 | 42.40519 | -121.47580 | 38856 ft | 478 kts | 161° |
| 2026-05-05 04:07 | 42.33971 | -121.45767 | 38837 ft | 480 kts | 161° |
| 2026-05-05 04:08 | 42.27468 | -121.43971 | 38852 ft | 478 kts | 161° |
| 2026-05-05 04:08 | 42.20996 | -121.42196 | 38825 ft | 468 kts | 160° |
| 2026-05-05 04:09 | 42.14679 | -121.40460 | 38866 ft | 464 kts | 160° |
| 2026-05-05 04:09 | 42.08354 | -121.38717 | 38866 ft | 462 kts | 160° |
| 2026-05-05 04:10 | 42.02066 | -121.36988 | 38860 ft | 464 kts | 161° |
| 2026-05-05 04:10 | 41.95705 | -121.35242 | 38850 ft | 468 kts | 161° |
| 2026-05-05 04:11 | 41.89278 | -121.33486 | 38837 ft | 472 kts | 161° |
| 2026-05-05 04:11 | 41.82843 | -121.31732 | 38842 ft | 475 kts | 161° |
| 2026-05-05 04:12 | 41.76329 | -121.29962 | 38848 ft | 477 kts | 161° |
| 2026-05-05 04:12 | 41.69853 | -121.28208 | 38832 ft | 474 kts | 161° |
| 2026-05-05 04:13 | 41.63428 | -121.26475 | 38835 ft | 468 kts | 162° |
| 2026-05-05 04:13 | 41.57039 | -121.24746 | 38867 ft | 467 kts | 162° |
| 2026-05-05 04:14 | 41.50702 | -121.23034 | 38870 ft | 466 kts | 162° |
| 2026-05-05 04:14 | 41.44306 | -121.21309 | 38896 ft | 467 kts | 162° |
| 2026-05-05 04:15 | 41.11330 | -121.12437 | 38953 ft | 470 kts | 163° |
| 2026-05-05 04:15 | 40.58459 | -121.04859 | 38989 ft | 485 kts | 174° |